Terminal Aerodrome Forecast
Issued by NWS

Home | Current Version | Previous Version | Text Only | Print | Product List | Glossary On
Versions: 1 2 3 4 5 6 7 8 9 10 11 12 13 14 15 16 17 18
000
FTUS44 KLZK 010500
TAFLIT
TAF
KLIT 010538Z 0106/0206 06003KT P6SM SCT025 OVC040
      TEMPO 0106/0109 3SM BR OVC025
     FM010900 02003KT 3SM BR SCT010 OVC025
      TEMPO 0109/0113 1SM BR BKN005 OVC010
     FM011500 07006KT P6SM SCT025 OVC040
     FM020000 07003KT P6SM BKN050=

USA.gov is the U.S. government's official web portal to all federal, state and local government web resources and services.